Active alerts

Dallas County
  Details for Dallas County 
Denton County
  Details for Denton County 
Tarrant County
  Details for Tarrant County 

Flower Mound more information Flower Mound


Coppell more information Coppell


I-35W at Alliance Airport more information I-35W at Alliance Airport


FM114 @ DFW North Entrance more information FM114 @ DFW North Entrance



Nearby METAR Reports

   
KCVG - Florence, KY
Updated: Nov 21 2017 8:52 pm
Overcast  
Overcast  
   Wind: NNW 11.5 mph
Wind: NNW 11.5 mph
Temperature: 46.4°F
Wind Chill: 41°F
Dew Point: 33.8°F
Humidity: 62%
Barometer: 30.02 inHg
Clouds: Overcast
Visibility: 10 mi
Cloud details: Mostly Cloudy 1372 m,
Overcast 4572 m
KCVG 220252Z 33010KT 10SM BKN045 OVC150 08/01 A3002 RMK AO2 SLP166 T00780011 51018
KBOS - Boston, MA
Updated: Nov 21 2017 8:54 pm
Partly Cloudy  
Partly Cloudy  
   Wind: SW 12.7 mph
Wind: SW 12.7 mph
Temperature: 48.2°F
Wind Chill: 42.8°F
Dew Point: 41°F
Humidity: 76%
Barometer: 30.01 inHg
Clouds: Partly Cloudy
Visibility: 10 mi
Cloud details: Partly Cloudy 7010 m
KBOS 220254Z 22011KT 10SM SCT230 09/05 A3001 RMK AO2 SLP161 T00940050 53001
KRDU - Raliegh, NC
Updated: Nov 21 2017 8:51 pm
Mostly Cloudy  
Mostly Cloudy  
   Wind: Calm
Wind: Calm
Temperature: 53.6°F
Dew Point: 48.2°F
Humidity: 82%
Barometer: 30.05 inHg
Clouds: Mostly Cloudy
Visibility: 10 mi
Cloud details: Few Clouds 1341 m,
Partly Cloudy 2286 m,
Mostly Cloudy 6401 m,
Mostly Cloudy 7620 m
KRDU 220251Z 00000KT 10SM FEW044 SCT075 BKN210 BKN250 12/09 A3005 RMK AO2 SLP176 T01220089 56016
KFDW - Grapevine, TX
Updated: Nov 21 2017 9:35 pm
Overcast  
Overcast  
   Wind: Calm
Wind: Calm
Temperature: 53.6°F
Dew Point: 53.6°F
Humidity: 100%
Barometer: 30.03 inHg
Clouds: Overcast
Visibility: 10 mi
Cloud details: Partly Cloudy 640 m,
Partly Cloudy 823 m,
Overcast 1676 m
KFDW 220335Z AUTO 00000KT 10SM SCT021 SCT027 OVC055 12/12 A3003 RMK AO1
  

Script developed by  Saratoga-weather.org Adapted for the template by  Weerstation Leuven

You find our weather info also at:

WeatherCloud

Weather Underground

Mid South Weather Network

WeatherlinkIP

Citizen Weather Observer Program (CWOP)

HAMweather, WeatherForYou, PWS Weather

Equipment we use:

Weather-station
Davis Vantage Pro 2

Weather-program
Weather Display

Weather-server
Intel NUC

Provider
ehost.com

Davis Vantage Pro 2

Weather Display

Intel NUC

ehost.com